Time;durP1;ratioP1;P1;durP2;ratioP2;P2;SDS_P1;SDS_P2;PMS_P1;PMS_P2;Temp;Humidity;BMP_temperature;BMP_pressure;BME280_temperature;BME280_humidity;BME280_pressure;Samples;Min_cycle;Max_cycle;Signal;HPM_P1;HPM_P2
2023/12/24 00:02:16;;;;;;;0.87;0.87;;;;;;;-145.69;55.02;52337.44;4919353;29;20204;-81
2023/12/24 00:04:42;;;;;;;0.50;0.50;;;;;;;-145.69;55.30;52345.38;4919095;29;20204;-80
2023/12/24 00:07:09;;;;;;;0.47;0.43;;;;;;;-145.69;54.86;52337.44;4919144;29;20653;-81
2023/12/24 00:09:37;;;;;;;1.80;0.60;;;;;;;-145.69;55.07;52353.28;4918807;29;20243;-80
2023/12/24 00:12:04;;;;;;;0.60;0.60;;;;;;;-145.69;55.39;52351.31;4907936;29;20208;-81
2023/12/24 00:14:31;;;;;;;0.70;0.70;;;;;;;-145.69;55.11;52361.22;4900326;29;20208;-80
2023/12/24 00:16:57;;;;;;;0.50;0.50;;;;;;;-145.69;55.37;52351.31;4900275;29;20204;-80
2023/12/24 00:19:23;;;;;;;0.63;0.63;;;;;;;-145.69;55.02;52339.44;4900232;29;20213;-80
2023/12/24 00:21:53;;;;;;;0.40;0.40;;;;;;;-145.69;54.91;52335.47;4900109;29;20209;-80
2023/12/24 00:24:19;;;;;;;0.63;0.50;;;;;;;-145.69;55.35;52349.31;4900025;29;20289;-81
2023/12/24 00:26:47;;;;;;;1.17;0.60;;;;;;;-145.69;55.25;52333.47;4900306;29;20209;-80
2023/12/24 00:29:13;;;;;;;0.70;0.70;;;;;;;-145.69;54.83;52341.41;4899933;29;20239;-80
2023/12/24 00:31:41;;;;;;;0.60;0.60;;;;;;;-145.69;54.96;52349.31;4908699;29;20260;-81
2023/12/24 00:34:07;;;;;;;0.50;0.50;;;;;;;-145.69;54.77;52327.53;4918069;29;20715;-81
2023/12/24 00:36:34;;;;;;;0.70;0.70;;;;;;;-145.69;54.62;52333.47;4918321;29;20196;-80
2023/12/24 00:39:00;;;;;;;1.30;0.50;;;;;;;-145.69;55.20;52369.13;4918511;29;20222;-80
2023/12/24 00:41:27;;;;;;;0.90;0.70;;;;;;;-145.69;55.10;52313.69;4918640;29;20204;-80
2023/12/24 00:43:54;;;;;;;0.80;0.80;;;;;;;-145.69;54.83;52345.38;4918609;29;20219;-80
2023/12/24 00:46:21;;;;;;;0.50;0.50;;;;;;;-145.69;54.38;52357.25;4918601;29;20208;-80
2023/12/24 00:48:47;;;;;;;2.00;0.93;;;;;;;-145.69;55.33;52375.06;4918351;29;20707;-80
2023/12/24 00:51:14;;;;;;;1.03;0.60;;;;;;;-145.69;55.91;52337.44;4918571;29;20212;-80
2023/12/24 00:53:40;;;;;;;0.60;0.60;;;;;;;-145.69;56.01;52365.16;4918680;29;20207;-80
2023/12/24 00:56:07;;;;;;;0.57;0.50;;;;;;;-145.69;55.74;52353.28;4918644;29;20208;-80
2023/12/24 00:58:37;;;;;;;2.63;0.70;;;;;;;-145.69;55.80;52353.28;4918486;29;20204;-80
2023/12/24 01:01:05;;;;;;;0.80;0.70;;;;;;;-145.69;55.92;52333.47;4917992;29;20207;-80
2023/12/24 01:03:31;;;;;;;0.97;0.77;;;;;;;-145.69;55.79;52367.16;4918034;29;20671;-80
2023/12/24 01:05:58;;;;;;;0.73;0.70;;;;;;;-145.69;55.74;52363.19;4918234;29;20230;-81
2023/12/24 01:08:24;;;;;;;0.70;0.60;;;;;;;-145.69;55.55;52357.25;4916835;29;20231;-81
2023/12/24 01:10:51;;;;;;;1.80;0.80;;;;;;;-145.69;56.22;52369.13;4916611;29;20232;-80
2023/12/24 01:13:19;;;;;;;0.73;0.67;;;;;;;-145.69;56.01;52333.47;4917449;29;20274;-81
2023/12/24 01:15:45;;;;;;;0.90;0.70;;;;;;;-145.69;55.89;52371.13;4917921;29;20268;-80
2023/12/24 01:18:16;;;;;;;2.50;0.70;;;;;;;-145.69;55.43;52351.31;4917863;29;20201;-80
2023/12/24 01:20:43;;;;;;;1.20;0.80;;;;;;;-145.69;55.74;52347.34;4917990;29;20200;-80
2023/12/24 01:23:09;;;;;;;0.63;0.63;;;;;;;-145.69;54.85;52297.84;4918084;29;20609;-80
2023/12/24 01:25:35;;;;;;;0.50;0.50;;;;;;;-145.69;55.16;52345.38;4918031;29;20208;-80
2023/12/24 01:28:02;;;;;;;0.70;0.60;;;;;;;-145.69;55.34;52333.47;4917739;29;20688;-81
2023/12/24 01:30:31;;;;;;;0.60;0.60;;;;;;;-145.69;54.94;52337.44;4917716;29;20208;-80
2023/12/24 01:32:58;;;;;;;0.60;0.60;;;;;;;-145.69;55.12;52333.47;4917842;29;20214;-81
2023/12/24 01:35:26;;;;;;;0.50;0.50;;;;;;;-145.69;55.34;52337.44;4917917;29;20205;-80
2023/12/24 01:37:52;;;;;;;0.60;0.60;;;;;;;-145.69;55.45;52333.47;4917722;29;20208;-80
2023/12/24 01:40:19;;;;;;;1.03;0.70;;;;;;;-145.69;55.69;52325.56;4917599;29;20208;-80
2023/12/24 01:42:49;;;;;;;2.40;0.60;;;;;;;-145.69;55.43;52323.59;4916697;29;20208;-80
2023/12/24 01:45:18;;;;;;;0.67;0.67;;;;;;;-145.69;55.50;52315.66;4917203;29;20280;-81
2023/12/24 01:47:44;;;;;;;0.60;0.60;;;;;;;-145.69;55.89;52377.06;4917298;29;20200;-81
2023/12/24 01:50:11;;;;;;;0.50;0.50;;;;;;;-145.69;55.70;52347.34;4900281;29;20199;-80
2023/12/24 01:52:39;;;;;;;0.93;0.60;;;;;;;-145.69;55.49;52345.38;4917235;29;20208;-81
2023/12/24 01:55:07;;;;;;;0.60;0.60;;;;;;;-145.69;55.76;52339.44;4917396;29;20208;-82
2023/12/24 01:57:35;;;;;;;0.70;0.70;;;;;;;-145.69;55.03;52353.28;4917378;29;20216;-80
2023/12/24 02:00:05;;;;;;;0.63;0.60;;;;;;;-145.69;55.06;52321.59;4917158;29;20215;-79
2023/12/24 02:02:35;;;;;;;0.50;0.50;;;;;;;-145.69;55.16;52335.47;4917152;29;20208;-81
2023/12/24 02:05:02;;;;;;;0.50;0.50;;;;;;;-145.69;55.37;52353.28;4917224;29;20215;-79
2023/12/24 02:07:34;;;;;;;0.73;0.57;;;;;;;-145.69;55.79;52347.34;4917115;29;20211;-81
2023/12/24 02:10:02;;;;;;;1.23;0.90;;;;;;;-145.69;55.38;52359.22;4916874;29;20244;-82
2023/12/24 02:12:27;;;;;;;2.77;1.10;;;;;;;-145.69;55.35;52335.47;4916933;29;20204;-81
2023/12/24 02:14:54;;;;;;;7.20;1.60;;;;;;;-145.69;54.74;52331.50;4917127;29;20545;-81
2023/12/24 02:17:22;;;;;;;2.50;1.20;;;;;;;-145.69;55.72;52379.03;4916623;29;20212;-81
2023/12/24 02:19:51;;;;;;;1.40;0.80;;;;;;;-145.69;55.19;52349.31;4917276;29;20303;-81
2023/12/24 02:22:18;;;;;;;1.60;0.90;;;;;;;-145.69;54.79;52349.31;4916589;29;20243;-80
2023/12/24 02:24:45;;;;;;;2.83;1.30;;;;;;;-145.69;55.40;52355.28;4917099;29;20197;-81
2023/12/24 02:27:20;;;;;;;2.47;1.40;;;;;;;-145.69;55.55;52357.25;4917174;29;20211;-80
2023/12/24 02:29:49;;;;;;;0.60;0.60;;;;;;;-145.69;55.68;52337.44;4916372;29;20394;-80
2023/12/24 02:32:15;;;;;;;1.23;0.80;;;;;;;-145.69;55.08;52355.28;4916334;29;20563;-80
2023/12/24 02:34:47;;;;;;;2.90;1.00;;;;;;;-145.69;55.43;52351.31;4916747;29;20668;-80
2023/12/24 02:37:15;;;;;;;7.03;1.17;;;;;;;-145.69;55.22;52337.44;4917066;29;20207;-80
2023/12/24 02:39:46;;;;;;;1.90;0.83;;;;;;;-145.69;55.31;52329.53;4916407;29;20204;-81
2023/12/24 02:42:12;;;;;;;1.70;0.87;;;;;;;-145.69;55.18;52353.28;4916222;29;20204;-80
2023/12/24 02:44:39;;;;;;;1.37;0.97;;;;;;;-145.69;55.01;52333.47;4916480;29;20208;-81
2023/12/24 02:47:06;;;;;;;0.70;0.70;;;;;;;-145.69;55.73;52369.13;4916562;29;20563;-80
2023/12/24 02:49:31;;;;;;;1.10;1.00;;;;;;;-145.69;55.61;52373.09;4916137;29;20228;-80
2023/12/24 02:51:58;;;;;;;2.73;0.80;;;;;;;-145.69;54.96;52323.59;4916442;29;20210;-80
2023/12/24 02:54:24;;;;;;;0.80;0.70;;;;;;;-145.69;55.18;52363.19;4919231;29;20212;-80
2023/12/24 02:56:52;;;;;;;1.10;0.93;;;;;;;-145.69;55.04;52371.13;4920643;29;20215;-81
2023/12/24 02:59:19;;;;;;;0.70;0.70;;;;;;;-145.69;55.67;52327.53;4920593;29;20211;-80
2023/12/24 03:01:48;;;;;;;2.50;0.80;;;;;;;-145.69;55.69;52321.59;4920273;29;20216;-81
2023/12/24 03:04:15;;;;;;;0.73;0.60;;;;;;;-145.69;54.91;52343.38;4920293;29;20200;-80
2023/12/24 03:06:42;;;;;;;1.60;0.73;;;;;;;-145.69;55.37;52371.13;4920415;29;20264;-81
2023/12/24 03:09:10;;;;;;;0.67;0.67;;;;;;;-145.69;55.49;52329.53;4920206;29;20710;-80
2023/12/24 03:11:36;;;;;;;0.70;0.70;;;;;;;-145.69;55.34;52353.28;4920263;29;20295;-81
2023/12/24 03:14:04;;;;;;;0.70;0.70;;;;;;;-145.69;55.38;52305.75;4912450;29;20197;-81
2023/12/24 03:16:31;;;;;;;0.80;0.80;;;;;;;-145.69;55.62;52361.22;4901381;29;20212;-81
2023/12/24 03:18:59;;;;;;;1.10;1.00;;;;;;;-145.69;56.02;52365.16;4912158;29;20207;-81
2023/12/24 03:21:26;;;;;;;0.60;0.60;;;;;;;-145.69;56.35;52357.25;4920049;29;20267;-81
2023/12/24 03:23:52;;;;;;;0.60;0.60;;;;;;;-145.69;56.40;52377.06;4920205;29;20541;-80
2023/12/24 03:26:20;;;;;;;1.00;0.90;;;;;;;-145.69;55.74;52361.22;4920095;29;20259;-81
2023/12/24 03:28:49;;;;;;;0.77;0.77;;;;;;;-145.69;56.40;52367.16;4919548;29;20632;-81
2023/12/24 03:31:17;;;;;;;0.77;0.70;;;;;;;-145.69;55.86;52333.47;4919808;29;20544;-81
2023/12/24 03:33:46;;;;;;;1.00;0.93;;;;;;;-145.69;55.72;52341.41;4919713;29;20204;-81
2023/12/24 03:36:13;;;;;;;0.97;0.80;;;;;;;-145.69;56.20;52311.69;4919730;29;20216;-81
2023/12/24 03:38:39;;;;;;;0.73;0.73;;;;;;;-145.69;56.14;52353.28;4919949;29;20207;-80
2023/12/24 03:41:09;;;;;;;0.70;0.70;;;;;;;-145.69;56.20;52345.38;4919644;29;20204;-81
2023/12/24 03:43:39;;;;;;;1.37;0.83;;;;;;;-145.69;56.09;52341.41;4919758;29;20571;-81
2023/12/24 03:46:06;;;;;;;0.90;0.70;;;;;;;-145.69;56.29;52349.31;4919622;29;20208;-81
2023/12/24 03:48:37;;;;;;;1.07;0.80;;;;;;;-145.69;56.46;52347.34;4919458;29;20228;-81
2023/12/24 03:51:04;;;;;;;2.00;0.70;;;;;;;-145.69;56.23;52369.13;4919167;29;20204;-81
2023/12/24 03:53:33;;;;;;;0.60;0.60;;;;;;;-145.69;55.54;52347.34;4919445;29;20208;-81
2023/12/24 03:56:00;;;;;;;1.03;0.83;;;;;;;-145.69;55.17;52345.38;4919386;29;20204;-81
2023/12/24 03:58:26;;;;;;;0.67;0.67;;;;;;;-145.69;55.47;52353.28;4919245;29;20680;-81
2023/12/24 04:00:52;;;;;;;1.30;0.90;;;;;;;-145.69;56.04;52299.81;4918998;29;20204;-81
2023/12/24 04:03:21;;;;;;;1.70;0.70;;;;;;;-145.69;55.72;52373.09;4919322;29;20204;-81
2023/12/24 04:05:50;;;;;;;0.90;0.80;;;;;;;-145.69;55.33;52333.47;4918129;29;20233;-80
2023/12/24 04:08:16;;;;;;;0.70;0.70;;;;;;;-145.69;55.57;52377.06;4919155;29;20211;-80
2023/12/24 04:10:43;;;;;;;0.80;0.60;;;;;;;-145.69;55.32;52303.78;4919015;29;20708;-81
2023/12/24 04:13:10;;;;;;;1.30;0.80;;;;;;;-145.69;55.69;52357.25;4919059;29;20214;-81
2023/12/24 04:15:36;;;;;;;0.80;0.60;;;;;;;-145.69;55.57;52361.22;4919434;29;20208;-81
2023/12/24 04:18:03;;;;;;;0.60;0.60;;;;;;;-145.69;55.38;52317.66;4919227;29;20208;-81
2023/12/24 04:20:32;;;;;;;2.43;0.80;;;;;;;-145.69;55.24;52323.59;4919302;29;20204;-81
2023/12/24 04:23:00;;;;;;;1.43;0.80;;;;;;;-145.69;54.66;52345.38;4919114;29;20212;-82
2023/12/24 04:25:27;;;;;;;1.27;0.90;;;;;;;-145.69;55.40;52349.31;4918912;29;20205;-81
2023/12/24 04:27:53;;;;;;;1.03;0.97;;;;;;;-145.69;54.45;52335.47;4918405;29;20612;-81
2023/12/24 04:30:22;;;;;;;1.03;0.70;;;;;;;-145.69;54.96;52351.31;4918764;29;20231;-81
2023/12/24 04:32:49;;;;;;;1.00;0.93;;;;;;;-145.69;54.63;52331.50;4918713;29;20208;-81
2023/12/24 04:35:15;;;;;;;1.10;0.77;;;;;;;-145.69;54.71;52345.38;4919045;29;20235;-82
2023/12/24 04:37:44;;;;;;;3.53;0.80;;;;;;;-145.69;54.28;52337.44;4918664;29;20208;-81
2023/12/24 04:40:13;;;;;;;1.87;1.00;;;;;;;-145.69;54.84;52345.38;4918805;29;20212;-81
2023/12/24 04:42:39;;;;;;;2.10;0.80;;;;;;;-145.69;54.40;52327.53;4918548;29;20234;-81
2023/12/24 04:45:06;;;;;;;1.07;0.80;;;;;;;-145.69;54.89;52317.66;4918767;29;20208;-81
2023/12/24 04:47:33;;;;;;;0.70;0.70;;;;;;;-145.69;55.24;52333.47;4918408;29;20691;-81
2023/12/24 04:49:59;;;;;;;2.03;0.90;;;;;;;-145.69;55.64;52331.50;4918405;29;20242;-81
2023/12/24 04:52:26;;;;;;;1.47;0.80;;;;;;;-145.69;55.90;52377.06;4917999;29;20207;-81
2023/12/24 04:54:53;;;;;;;0.97;0.80;;;;;;;-145.69;55.97;52315.66;4918169;29;20200;-80
2023/12/24 04:57:20;;;;;;;3.20;0.90;;;;;;;-145.69;56.10;52377.06;4918209;29;20201;-81
2023/12/24 04:59:47;;;;;;;0.90;0.80;;;;;;;-145.69;56.41;52363.19;4918485;29;20201;-80
2023/12/24 05:02:16;;;;;;;0.83;0.80;;;;;;;-145.69;56.57;52331.50;4908090;29;20205;-81
2023/12/24 05:04:43;;;;;;;1.07;0.87;;;;;;;-145.69;56.47;52347.34;4913874;29;20204;-80
2023/12/24 05:07:15;;;;;;;1.10;1.00;;;;;;;-145.69;56.75;52341.41;4918227;29;20204;-81
2023/12/24 05:09:44;;;;;;;0.77;0.70;;;;;;;-145.69;56.63;52331.50;4917923;29;20236;-82
2023/12/24 05:12:10;;;;;;;0.80;0.70;;;;;;;-145.69;57.19;52347.34;4917233;29;20208;-81
2023/12/24 05:14:40;;;;;;;2.00;1.00;;;;;;;-145.69;57.38;52345.38;4915791;29;20200;-82
2023/12/24 05:17:06;;;;;;;1.10;0.90;;;;;;;-145.69;57.38;52331.50;4917759;29;20295;-82
2023/12/24 05:19:33;;;;;;;1.40;1.00;;;;;;;-145.69;57.48;52337.44;4917894;29;20215;-80
2023/12/24 05:21:59;;;;;;;1.17;0.90;;;;;;;-145.69;57.15;52353.28;4917835;29;20208;-81
2023/12/24 05:24:28;;;;;;;0.90;0.80;;;;;;;-145.69;57.55;52303.78;4917923;29;20201;-81
2023/12/24 05:26:56;;;;;;;0.67;0.67;;;;;;;-145.69;57.99;52345.38;4917385;29;20200;-81
2023/12/24 05:29:22;;;;;;;0.70;0.70;;;;;;;-145.69;57.73;52335.47;4917809;29;20259;-80
2023/12/24 05:31:54;;;;;;;0.83;0.80;;;;;;;-145.69;57.38;52367.16;4910997;29;20200;-81
2023/12/24 05:34:20;;;;;;;0.73;0.70;;;;;;;-145.69;58.09;52355.28;4898911;29;20249;-81
2023/12/24 05:36:48;;;;;;;1.07;0.70;;;;;;;-145.69;58.08;52353.28;4898731;29;20568;-81
2023/12/24 05:39:15;;;;;;;1.23;0.80;;;;;;;-145.69;58.10;52323.59;4898893;29;20209;-80
2023/12/24 05:41:45;;;;;;;0.83;0.73;;;;;;;-145.69;58.51;52343.38;4898630;29;20212;-81
2023/12/24 05:44:11;;;;;;;1.23;0.90;;;;;;;-145.69;58.18;52331.50;4898746;29;20212;-81
2023/12/24 05:46:38;;;;;;;1.20;0.90;;;;;;;-145.69;58.10;52323.59;4898673;29;20213;-81
2023/12/24 05:49:06;;;;;;;1.50;0.97;;;;;;;-145.69;58.17;52337.44;4898906;29;20231;-81
2023/12/24 05:51:33;;;;;;;2.33;0.97;;;;;;;-145.69;58.36;52321.59;4898733;29;20260;-81
2023/12/24 05:54:01;;;;;;;0.80;0.77;;;;;;;-145.69;58.61;52321.59;4898574;29;20219;-81
2023/12/24 05:56:28;;;;;;;0.73;0.73;;;;;;;-145.69;58.92;52323.59;4898560;29;20209;-80
2023/12/24 05:58:54;;;;;;;1.03;0.90;;;;;;;-145.69;59.05;52369.13;4914544;29;20679;-81
2023/12/24 06:01:20;;;;;;;1.10;0.97;;;;;;;-145.69;58.59;52363.19;4914699;29;20691;-81
2023/12/24 06:03:47;;;;;;;1.33;0.80;;;;;;;-145.69;58.48;52339.44;4898264;29;20212;-82
2023/12/24 06:06:15;;;;;;;0.80;0.70;;;;;;;-145.69;58.46;52361.22;4898362;29;20215;-81
2023/12/24 06:08:41;;;;;;;0.70;0.70;;;;;;;-145.69;57.96;52315.66;4898335;29;20215;-81
2023/12/24 06:11:15;;;;;;;0.77;0.70;;;;;;;-145.69;57.38;52335.47;4897898;29;20237;-81
2023/12/24 06:13:42;;;;;;;0.70;0.70;;;;;;;-145.69;57.68;52333.47;4898240;29;20239;-82
2023/12/24 06:16:09;;;;;;;0.60;0.60;;;;;;;-145.69;57.42;52357.25;4897972;29;20208;-81
2023/12/24 06:18:36;;;;;;;0.87;0.57;;;;;;;-145.69;57.06;52353.28;4898526;29;20252;-81
2023/12/24 06:21:04;;;;;;;0.80;0.80;;;;;;;-145.69;57.50;52337.44;4898247;29;20212;-81
2023/12/24 06:23:33;;;;;;;0.50;0.50;;;;;;;-145.69;56.90;52345.38;4898031;29;20200;-82
2023/12/24 06:26:00;;;;;;;0.77;0.60;;;;;;;-145.69;56.67;52329.53;4898553;29;20248;-81
2023/12/24 06:28:27;;;;;;;0.50;0.50;;;;;;;-145.69;56.72;52313.69;4910266;29;20214;-81
2023/12/24 06:30:53;;;;;;;0.80;0.60;;;;;;;-145.69;56.72;52341.41;4916836;29;20236;-80
2023/12/24 06:33:20;;;;;;;1.27;0.60;;;;;;;-145.69;56.47;52331.50;4899753;29;20424;-81
2023/12/24 06:35:46;;;;;;;0.60;0.60;;;;;;;-145.69;56.22;52313.69;4897827;29;20220;-81
2023/12/24 06:38:13;;;;;;;0.60;0.60;;;;;;;-145.69;55.94;52329.53;4897924;29;20208;-82
2023/12/24 06:40:40;;;;;;;0.60;0.50;;;;;;;-145.69;56.29;52333.47;4897756;29;20219;-82
2023/12/24 06:43:07;;;;;;;0.83;0.70;;;;;;;-145.69;56.07;52329.53;4897921;29;20235;-81
2023/12/24 06:45:34;;;;;;;0.70;0.70;;;;;;;-145.69;55.86;52351.31;4897805;29;20209;-81
2023/12/24 06:48:02;;;;;;;0.70;0.60;;;;;;;-145.69;55.64;52337.44;4898022;29;20208;-81
2023/12/24 06:50:29;;;;;;;0.67;0.67;;;;;;;-145.69;55.71;52329.53;4897732;29;20273;-81
2023/12/24 06:52:56;;;;;;;0.60;0.57;;;;;;;-145.69;56.02;52327.53;4897879;29;20225;-82
2023/12/24 06:55:23;;;;;;;0.70;0.70;;;;;;;-145.69;56.13;52355.28;4898063;29;20204;-80
2023/12/24 06:57:51;;;;;;;0.70;0.70;;;;;;;-145.69;56.09;52305.75;4915901;29;20232;-80
2023/12/24 07:00:18;;;;;;;0.70;0.70;;;;;;;-145.69;56.69;52345.38;4916684;29;20238;-80
2023/12/24 07:02:44;;;;;;;0.67;0.67;;;;;;;-145.69;56.12;52305.75;4905139;29;20197;-81
2023/12/24 07:05:11;;;;;;;0.50;0.50;;;;;;;-145.69;55.94;52345.38;4904263;29;20207;-81
2023/12/24 07:07:37;;;;;;;0.40;0.40;;;;;;;-145.69;56.39;52347.34;4916590;29;20200;-82
2023/12/24 07:10:04;;;;;;;0.70;0.70;;;;;;;-145.69;55.82;52289.91;4916172;29;20240;-81
2023/12/24 07:12:31;;;;;;;0.63;0.60;;;;;;;-145.69;55.96;52357.25;4913471;29;20227;-81
2023/12/24 07:14:59;;;;;;;0.40;0.40;;;;;;;-145.69;56.10;52317.66;4916391;29;20695;-81
2023/12/24 07:17:25;;;;;;;0.50;0.50;;;;;;;-145.69;56.49;52371.13;4916548;29;20211;-81
2023/12/24 07:19:52;;;;;;;0.50;0.50;;;;;;;-145.69;55.75;52337.44;4916384;29;20672;-81
2023/12/24 07:22:18;;;;;;;0.50;0.50;;;;;;;-145.69;56.17;52325.56;4916281;29;20208;-81
2023/12/24 07:24:45;;;;;;;0.60;0.60;;;;;;;-145.69;55.19;52321.59;4916321;29;20208;-81
2023/12/24 07:27:11;;;;;;;1.00;0.50;;;;;;;-145.69;55.42;52341.41;4915918;29;20213;-81
2023/12/24 07:29:41;;;;;;;0.63;0.63;;;;;;;-145.69;55.69;52289.91;4916207;29;20693;-81
2023/12/24 07:32:09;;;;;;;3.13;0.70;;;;;;;-145.69;55.59;52315.66;4916152;29;20196;-81
2023/12/24 07:34:36;;;;;;;1.63;0.50;;;;;;;-145.69;55.85;52329.53;4916432;29;20204;-81
2023/12/24 07:37:02;;;;;;;0.40;0.40;;;;;;;-145.69;56.20;52343.38;4916243;29;20208;-81
2023/12/24 07:39:29;;;;;;;0.60;0.60;;;;;;;-145.69;55.81;52361.22;4916889;29;20204;-81
2023/12/24 07:41:56;;;;;;;0.60;0.60;;;;;;;-145.69;55.33;52329.53;4919909;29;20200;-81
2023/12/24 07:44:22;;;;;;;1.23;0.80;;;;;;;-145.69;55.60;52361.22;4919746;29;20216;-82
2023/12/24 07:46:49;;;;;;;3.70;0.50;;;;;;;-145.69;55.49;52341.41;4919719;29;20208;-81
2023/12/24 07:49:17;;;;;;;0.50;0.50;;;;;;;-145.69;55.41;52341.41;4919454;29;20568;-81
2023/12/24 07:51:43;;;;;;;0.63;0.60;;;;;;;-145.69;54.92;52341.41;4919474;29;20232;-82
2023/12/24 07:54:10;;;;;;;0.90;0.80;;;;;;;-145.69;54.69;52307.75;4919531;29;20208;-81
2023/12/24 07:56:36;;;;;;;1.70;1.27;;;;;;;-145.69;55.26;52323.59;4919335;29;20212;-80
2023/12/24 07:59:03;;;;;;;0.70;0.60;;;;;;;-145.69;55.01;52299.81;4919349;29;20252;-80
2023/12/24 08:01:29;;;;;;;0.70;0.70;;;;;;;-145.69;55.49;52321.59;4918795;29;20208;-82
2023/12/24 08:03:56;;;;;;;0.50;0.50;;;;;;;-145.69;55.09;52333.47;4919204;29;20208;-82
2023/12/24 08:06:24;;;;;;;0.50;0.50;;;;;;;-145.69;55.17;52357.25;4919225;29;20304;-82
2023/12/24 08:08:50;;;;;;;1.17;0.60;;;;;;;-145.69;55.51;52311.69;4919199;29;20311;-82
2023/12/24 08:11:16;;;;;;;0.83;0.70;;;;;;;-145.69;54.97;52325.56;4891721;29;20239;-81
2023/12/24 08:13:43;;;;;;;1.10;1.00;;;;;;;-145.69;55.11;52301.81;4900306;29;20657;-81
2023/12/24 08:16:09;;;;;;;0.60;0.60;;;;;;;-145.69;54.86;52337.44;4900190;29;20212;-82
2023/12/24 08:18:37;;;;;;;0.60;0.50;;;;;;;-145.69;55.29;52329.53;4890084;29;20562;-81
2023/12/24 08:21:06;;;;;;;0.97;0.80;;;;;;;-145.69;55.28;52305.75;4881368;29;20216;-82
2023/12/24 08:23:34;;;;;;;0.70;0.70;;;;;;;-145.69;55.47;52329.53;4881585;29;20206;-81
2023/12/24 08:26:01;;;;;;;0.70;0.70;;;;;;;-145.69;55.87;52321.59;4881329;29;20257;-82
2023/12/24 08:28:27;;;;;;;1.30;0.70;;;;;;;-145.69;56.07;52319.63;4881299;29;20206;-81
2023/12/24 08:30:54;;;;;;;0.80;0.60;;;;;;;-145.69;55.81;52345.38;4881004;29;20238;-81
2023/12/24 08:33:20;;;;;;;0.60;0.60;;;;;;;-145.69;55.53;52313.69;4880969;29;20201;-81
2023/12/24 08:35:47;;;;;;;0.50;0.50;;;;;;;-145.69;55.89;52297.84;4882159;29;20197;-80
2023/12/24 08:38:15;;;;;;;0.57;0.50;;;;;;;-145.69;56.40;52319.63;4881011;29;20555;-81
2023/12/24 08:40:43;;;;;;;0.50;0.50;;;;;;;-145.69;55.73;52297.84;4881109;29;20213;-80
2023/12/24 08:43:10;;;;;;;0.83;0.70;;;;;;;-145.69;55.85;52305.75;4881156;29;20201;-79
2023/12/24 08:45:36;;;;;;;0.50;0.50;;;;;;;-145.69;55.62;52335.47;4885256;29;20193;-80
2023/12/24 08:48:03;;;;;;;0.50;0.50;;;;;;;-145.69;56.29;52339.44;4899662;29;20661;-78
2023/12/24 08:50:29;;;;;;;0.50;0.50;;;;;;;-145.69;56.13;52319.63;4899430;29;20224;-79
2023/12/24 08:52:56;;;;;;;0.50;0.50;;;;;;;-145.69;56.23;52303.78;4884322;29;20665;-78
2023/12/24 08:55:22;;;;;;;0.57;0.50;;;;;;;-145.69;56.29;52315.66;4880999;29;20208;-80
2023/12/24 08:57:50;;;;;;;0.60;0.60;;;;;;;-145.69;56.23;52301.81;4880791;29;20803;-80
2023/12/24 09:00:17;;;;;;;0.63;0.50;;;;;;;-145.69;56.60;52317.66;4880854;29;20209;-80
2023/12/24 09:02:45;;;;;;;0.60;0.60;;;;;;;-145.69;55.97;52282.00;4880213;29;20582;-79
2023/12/24 09:05:11;;;;;;;0.70;0.70;;;;;;;-145.69;56.01;52319.63;4880435;29;20220;-78
2023/12/24 09:07:39;;;;;;;1.50;0.93;;;;;;;-145.69;56.62;52321.59;4879748;29;20659;-80
2023/12/24 09:10:06;;;;;;;1.50;1.33;;;;;;;-145.69;55.82;52303.78;4899471;29;20243;-80
2023/12/24 09:12:33;;;;;;;3.33;0.80;;;;;;;-145.69;55.82;52319.63;4918183;29;20302;-80
2023/12/24 09:15:01;;;;;;;0.80;0.80;;;;;;;-145.69;56.39;52289.91;4917941;29;20283;-80
2023/12/24 09:17:27;;;;;;;1.47;0.70;;;;;;;-145.69;56.30;52325.56;4918002;29;20200;-80
2023/12/24 09:19:54;;;;;;;1.43;0.87;;;;;;;-145.69;56.46;52323.59;4918137;29;20204;-80
2023/12/24 09:22:20;;;;;;;0.77;0.60;;;;;;;-145.69;56.56;52325.56;4918081;29;20215;-80
2023/12/24 09:24:47;;;;;;;0.93;0.90;;;;;;;-145.69;56.88;52305.75;4918102;29;20591;-80
2023/12/24 09:27:14;;;;;;;1.17;0.90;;;;;;;-145.69;57.19;52321.59;4917869;29;20556;-79
2023/12/24 09:29:41;;;;;;;1.47;1.27;;;;;;;-145.69;56.87;52293.88;4917841;29;20286;-80
2023/12/24 09:32:09;;;;;;;1.17;0.93;;;;;;;-145.69;57.70;52321.59;4917175;29;20718;-80
2023/12/24 09:34:35;;;;;;;1.27;0.70;;;;;;;-145.69;58.35;52329.53;4917854;29;20211;-80
2023/12/24 09:37:02;;;;;;;1.77;1.30;;;;;;;-145.69;58.19;52321.59;4917523;29;20227;-80
2023/12/24 09:39:28;;;;;;;1.47;0.93;;;;;;;-145.69;57.67;52305.75;4917773;29;20256;-80
2023/12/24 09:41:55;;;;;;;1.27;1.00;;;;;;;-145.69;57.70;52289.91;4917526;29;20656;-80
2023/12/24 09:44:23;;;;;;;2.77;0.80;;;;;;;-145.69;57.00;52282.00;4917570;29;20204;-80
2023/12/24 09:46:49;;;;;;;1.20;0.80;;;;;;;-145.69;57.54;52315.66;4917207;29;20212;-80
2023/12/24 09:49:17;;;;;;;1.87;1.00;;;;;;;-145.69;56.86;52291.91;4917547;29;20243;-80
2023/12/24 09:51:43;;;;;;;2.20;1.00;;;;;;;-145.69;57.25;52301.81;4917300;29;20236;-80
2023/12/24 09:54:10;;;;;;;3.75;1.48;;;;;;;-145.69;56.50;52301.81;4917413;29;20205;-81
2023/12/24 09:56:37;;;;;;;2.80;1.53;;;;;;;-145.69;57.20;52276.06;4917356;29;20267;-80
2023/12/24 09:59:04;;;;;;;1.00;0.90;;;;;;;-145.69;56.19;52309.72;4917107;29;20256;-81
2023/12/24 10:01:39;;;;;;;0.63;0.63;;;;;;;-145.69;55.60;52313.69;4916679;29;20209;-80
2023/12/24 10:04:06;;;;;;;0.90;0.90;;;;;;;-145.69;54.97;52282.00;4916378;29;20203;-79
2023/12/24 10:06:34;;;;;;;0.70;0.70;;;;;;;-145.69;54.56;52283.97;4917173;29;20227;-80
2023/12/24 10:09:01;;;;;;;0.70;0.70;;;;;;;-145.69;54.43;52293.88;4916782;29;20260;-80
2023/12/24 10:11:35;;;;;;;0.60;0.60;;;;;;;-145.69;54.62;52313.69;4916622;29;20683;-80
2023/12/24 10:14:03;;;;;;;0.80;0.80;;;;;;;-145.69;54.92;52270.13;4917486;29;20214;-80
2023/12/24 10:16:29;;;;;;;6.60;1.80;;;;;;;-145.69;54.67;52289.91;4917039;29;20200;-80
2023/12/24 10:18:58;;;;;;;1.80;1.50;;;;;;;-145.69;54.33;52254.28;4916952;29;20668;-81
2023/12/24 10:21:25;;;;;;;3.35;1.80;;;;;;;-145.69;54.31;52270.13;4916919;29;20222;-79
2023/12/24 10:23:53;;;;;;;1.80;1.30;;;;;;;-145.69;54.38;52301.81;4916945;29;20617;-80
2023/12/24 10:26:23;;;;;;;2.38;1.52;;;;;;;-145.69;54.19;52266.16;4916922;29;20346;-80
2023/12/24 10:28:50;;;;;;;0.60;0.60;;;;;;;-145.69;54.14;52266.16;4917082;29;20204;-81
2023/12/24 10:31:17;;;;;;;0.40;0.40;;;;;;;-145.69;54.29;52293.88;4916461;29;20635;-80
2023/12/24 10:33:44;;;;;;;1.25;0.90;;;;;;;-145.69;54.15;52270.13;4917053;29;20652;-80
2023/12/24 10:36:11;;;;;;;0.60;0.60;;;;;;;-145.69;54.33;52256.25;4916654;29;20200;-80
2023/12/24 10:38:38;;;;;;;0.73;0.73;;;;;;;-145.69;54.11;52280.00;4916666;29;20211;-80
2023/12/24 10:41:07;;;;;;;1.15;1.00;;;;;;;-145.69;54.50;52299.81;4916555;29;20549;-80
2023/12/24 10:43:33;;;;;;;0.98;0.63;;;;;;;-145.69;54.14;52258.22;4916567;29;20568;-81
2023/12/24 10:46:00;;;;;;;0.90;0.80;;;;;;;-145.69;53.85;52242.38;4916565;29;20243;-80
2023/12/24 10:48:26;;;;;;;0.93;0.80;;;;;;;-145.69;53.76;52295.84;4916684;29;20200;-79
2023/12/24 10:50:53;;;;;;;1.77;0.80;;;;;;;-145.69;53.98;52282.00;4916481;29;20251;-79
2023/12/24 10:53:19;;;;;;;0.90;0.70;;;;;;;-145.69;54.06;52268.13;4916671;29;20204;-80
2023/12/24 10:56:02;;;;;;;1.40;1.02;;;;;;;-145.69;54.43;52250.31;4916469;29;20240;-79
2023/12/24 10:58:42;;;;;;;0.73;0.70;;;;;;;-145.69;53.88;52272.09;4900596;29;20291;-79
2023/12/24 11:01:10;;;;;;;1.73;1.10;;;;;;;-145.69;53.95;52285.97;4897886;29;20312;-80
2023/12/24 11:03:44;;;;;;;0.88;0.50;;;;;;;-145.69;54.00;52283.97;4897660;29;20209;-80
2023/12/24 11:06:11;;;;;;;1.13;0.70;;;;;;;-145.69;54.55;52272.09;4912803;29;20666;-81
2023/12/24 11:08:38;;;;;;;0.80;0.65;;;;;;;-145.69;53.80;52303.78;4916570;29;20212;-79
2023/12/24 11:11:06;;;;;;;1.05;0.70;;;;;;;-145.69;53.36;52280.00;4915755;29;20583;-80
2023/12/24 11:13:47;;;;;;;1.70;0.70;;;;;;;-145.69;53.08;52278.03;4911083;29;20214;-81
2023/12/24 11:16:37;;;;;;;0.85;0.85;;;;;;;-145.69;53.95;52291.91;4919288;29;20207;-81
2023/12/24 11:19:06;;;;;;;1.10;0.68;;;;;;;-145.69;54.37;52262.19;4919874;29;20672;-79